createdAt,value
2018-05-21T00:00:06.323Z,0.00
2018-05-21T00:01:06.504Z,0.00
2018-05-21T00:02:06.690Z,0.00
2018-05-21T00:03:06.861Z,0.00
2018-05-21T00:04:07.047Z,0.00
2018-05-21T00:05:07.221Z,0.00
2018-05-21T00:06:07.405Z,0.00
2018-05-21T00:07:07.882Z,0.00
2018-05-21T00:08:07.788Z,0.00
2018-05-21T00:09:07.961Z,0.00
2018-05-21T00:10:08.154Z,0.00
2018-05-21T00:11:08.326Z,0.00
2018-05-21T00:12:08.501Z,0.00
2018-05-21T00:13:08.677Z,0.00
2018-05-21T00:14:08.867Z,0.00
2018-05-21T00:15:09.068Z,0.00
2018-05-21T00:16:09.239Z,0.00
2018-05-21T00:17:09.414Z,0.00
2018-05-21T00:18:09.597Z,0.00
2018-05-21T00:19:09.776Z,0.00
2018-05-21T00:20:09.954Z,0.00
2018-05-21T00:21:10.144Z,0.00
2018-05-21T00:22:10.334Z,0.00
2018-05-21T00:23:10.519Z,0.00
2018-05-21T00:24:10.698Z,0.00
2018-05-21T00:25:10.876Z,0.00
2018-05-21T00:26:11.053Z,0.00
2018-05-21T00:27:11.241Z,0.00
2018-05-21T00:28:11.422Z,0.00
2018-05-21T00:29:11.604Z,0.00
2018-05-21T00:30:11.781Z,0.00
2018-05-21T00:31:11.961Z,0.00
2018-05-21T00:32:12.145Z,0.00
2018-05-21T00:33:12.328Z,0.00
2018-05-21T00:34:12.524Z,0.00
2018-05-21T00:35:12.691Z,0.00
2018-05-21T00:36:12.871Z,0.00
2018-05-21T00:37:13.054Z,0.00
2018-05-21T00:38:13.239Z,0.00
2018-05-21T00:39:13.417Z,0.00
2018-05-21T00:40:13.601Z,0.00
2018-05-21T00:41:13.775Z,0.00
2018-05-21T00:42:13.960Z,0.00
2018-05-21T00:43:14.135Z,0.00
2018-05-21T00:44:14.313Z,0.00
2018-05-21T00:45:14.502Z,0.00
2018-05-21T00:46:14.685Z,0.00
2018-05-21T00:47:14.867Z,0.00
2018-05-21T00:48:15.051Z,0.00
2018-05-21T00:49:15.232Z,0.00
2018-05-21T00:50:15.419Z,0.00
2018-05-21T00:51:15.593Z,0.00
2018-05-21T00:52:15.777Z,0.00
2018-05-21T00:53:15.964Z,0.00
2018-05-21T00:54:16.145Z,0.00
2018-05-21T00:55:16.325Z,0.00
2018-05-21T00:56:16.507Z,0.00
2018-05-21T00:57:16.688Z,0.00
2018-05-21T00:58:16.873Z,0.00
2018-05-21T00:59:17.054Z,0.00
2018-05-21T01:00:17.237Z,0.00
2018-05-21T01:01:17.418Z,0.00
2018-05-21T01:02:17.602Z,0.00
2018-05-21T01:03:17.797Z,0.00
2018-05-21T01:04:17.972Z,0.00
2018-05-21T01:05:18.234Z,0.00
2018-05-21T01:06:18.327Z,0.00
2018-05-21T01:07:18.508Z,0.00
2018-05-21T01:08:18.686Z,0.00
2018-05-21T01:09:18.876Z,0.00
2018-05-21T01:10:19.057Z,0.00
2018-05-21T01:11:19.244Z,0.00
2018-05-21T01:12:19.428Z,0.00
2018-05-21T01:13:19.608Z,0.00
2018-05-21T01:14:19.786Z,0.00
2018-05-21T01:15:19.968Z,0.00
2018-05-21T01:16:20.155Z,0.00
2018-05-21T01:17:20.335Z,0.00
2018-05-21T01:18:20.506Z,0.00
2018-05-21T01:19:20.687Z,0.00
2018-05-21T01:20:20.877Z,0.00
2018-05-21T01:21:21.065Z,0.00
2018-05-21T01:22:21.245Z,0.00
2018-05-21T01:23:21.419Z,0.00
2018-05-21T01:24:21.602Z,0.00
2018-05-21T01:25:21.784Z,0.00
2018-05-21T01:26:21.969Z,0.00
2018-05-21T01:27:22.148Z,0.00
2018-05-21T01:28:22.369Z,0.00
2018-05-21T01:29:22.509Z,0.00
2018-05-21T01:30:22.698Z,0.00
2018-05-21T01:31:22.883Z,0.00
2018-05-21T01:32:23.055Z,0.00
2018-05-21T01:33:23.228Z,0.00
2018-05-21T01:34:23.411Z,0.00
2018-05-21T01:35:23.591Z,0.00
2018-05-21T01:36:23.783Z,0.00
2018-05-21T01:37:23.962Z,0.00
2018-05-21T01:38:24.140Z,0.00
2018-05-21T01:39:24.321Z,0.00
2018-05-21T01:40:24.504Z,0.00
2018-05-21T01:41:24.683Z,0.00
2018-05-21T01:42:24.869Z,0.00
2018-05-21T01:43:25.054Z,0.00
2018-05-21T01:44:25.276Z,0.00
2018-05-21T01:45:25.415Z,0.00
2018-05-21T01:46:25.600Z,0.00
2018-05-21T01:47:25.781Z,0.00
2018-05-21T01:48:25.959Z,0.00
2018-05-21T01:49:26.141Z,0.00
2018-05-21T01:50:26.318Z,0.00
2018-05-21T01:51:26.506Z,0.00
2018-05-21T01:52:26.683Z,0.00
2018-05-21T01:53:26.861Z,0.00
2018-05-21T01:54:27.042Z,0.00
2018-05-21T01:55:27.228Z,0.00
2018-05-21T01:56:27.658Z,0.00
2018-05-21T01:57:27.596Z,0.00
2018-05-21T01:58:27.778Z,0.00
2018-05-21T01:59:27.966Z,0.00
2018-05-21T02:00:28.155Z,0.00
2018-05-21T02:01:28.325Z,0.00
2018-05-21T02:02:28.504Z,0.00
2018-05-21T02:03:28.682Z,0.00
2018-05-21T02:04:28.872Z,0.00
2018-05-21T02:05:29.049Z,0.00
2018-05-21T02:06:29.245Z,0.00
2018-05-21T02:07:29.427Z,0.00
2018-05-21T02:08:29.643Z,0.00
2018-05-21T02:09:29.772Z,0.00
2018-05-21T02:10:29.954Z,0.00
2018-05-21T02:11:30.139Z,0.00
2018-05-21T02:12:30.314Z,0.00
2018-05-21T02:13:30.734Z,0.00
2018-05-21T02:14:30.671Z,0.00
2018-05-21T02:15:30.860Z,0.00
2018-05-21T02:16:31.056Z,0.00
2018-05-21T02:17:31.221Z,0.00
2018-05-21T02:18:31.397Z,0.00
2018-05-21T02:19:31.583Z,0.00
2018-05-21T02:20:31.765Z,0.00
2018-05-21T02:21:31.943Z,0.00
2018-05-21T02:22:32.121Z,0.00
2018-05-21T02:23:32.306Z,0.00
2018-05-21T02:24:32.485Z,0.00
2018-05-21T02:25:32.668Z,0.00
2018-05-21T02:26:32.845Z,0.00
2018-05-21T02:27:33.030Z,0.00
2018-05-21T02:28:33.213Z,0.00
2018-05-21T02:29:33.394Z,0.00
2018-05-21T02:30:33.580Z,0.00
2018-05-21T02:31:33.756Z,0.00
2018-05-21T02:32:33.941Z,0.00
2018-05-21T02:33:34.125Z,0.00
2018-05-21T02:34:34.308Z,0.00
2018-05-21T02:35:34.488Z,0.00
2018-05-21T02:36:34.671Z,0.00
2018-05-21T02:37:34.850Z,0.00
2018-05-21T02:38:35.040Z,0.00
2018-05-21T02:39:35.217Z,0.00
2018-05-21T02:40:35.402Z,0.00
2018-05-21T02:41:35.593Z,0.00
2018-05-21T02:42:35.755Z,0.00
2018-05-21T02:43:35.939Z,4.00
2018-05-21T02:44:36.121Z,4.00
2018-05-21T02:45:36.302Z,4.00
2018-05-21T02:46:36.489Z,0.00
2018-05-21T02:47:36.913Z,4.00
2018-05-21T02:48:36.868Z,4.00
2018-05-21T02:49:37.029Z,0.00
2018-05-21T02:50:37.205Z,4.00
2018-05-21T02:51:37.403Z,8.00
2018-05-21T02:52:37.568Z,4.00
2018-05-21T02:53:37.750Z,4.00
2018-05-21T02:54:37.929Z,8.00
2018-05-21T02:55:38.107Z,12.00
2018-05-21T02:56:38.299Z,12.00
2018-05-21T02:57:38.467Z,12.00
2018-05-21T02:58:38.654Z,12.00
2018-05-21T02:59:38.833Z,16.00
2018-05-21T03:00:39.013Z,20.00
2018-05-21T03:01:39.187Z,20.00
2018-05-21T03:02:39.369Z,20.00
2018-05-21T03:03:39.541Z,28.00
2018-05-21T03:04:39.977Z,28.00
2018-05-21T03:05:39.907Z,32.00
2018-05-21T03:06:40.093Z,40.00
2018-05-21T03:07:40.258Z,40.00
2018-05-21T03:08:40.457Z,48.00
2018-05-21T03:09:40.623Z,56.00
2018-05-21T03:10:40.804Z,60.00
2018-05-21T03:11:40.984Z,68.00
2018-05-21T03:12:41.170Z,76.00
2018-05-21T03:13:41.379Z,84.00
2018-05-21T03:14:41.560Z,92.00
2018-05-21T03:15:41.730Z,104.00
2018-05-21T03:16:41.915Z,112.00
2018-05-21T03:17:42.093Z,124.00
2018-05-21T03:18:42.272Z,136.00
2018-05-21T03:19:42.462Z,152.00
2018-05-21T03:20:42.650Z,164.00
2018-05-21T03:21:43.137Z,180.00
2018-05-21T03:22:43.001Z,196.00
2018-05-21T03:23:43.188Z,212.00
2018-05-21T03:24:43.399Z,228.00
2018-05-21T03:25:43.543Z,248.00
2018-05-21T03:26:43.727Z,268.00
2018-05-21T03:27:43.911Z,288.00
2018-05-21T03:28:44.088Z,312.00
2018-05-21T03:29:44.268Z,336.00
2018-05-21T03:30:44.452Z,360.00
2018-05-21T03:31:44.629Z,384.00
2018-05-21T03:32:44.808Z,412.00
2018-05-21T03:33:44.987Z,444.00
2018-05-21T03:34:45.173Z,472.00
2018-05-21T03:35:45.344Z,504.00
2018-05-21T03:36:45.523Z,536.00
2018-05-21T03:37:45.702Z,572.00
2018-05-21T03:38:45.883Z,608.00
2018-05-21T03:39:46.067Z,648.00
2018-05-21T03:40:46.248Z,684.00
2018-05-21T03:41:46.435Z,724.00
2018-05-21T03:42:46.702Z,768.00
2018-05-21T03:43:47.042Z,812.00
2018-05-21T03:44:46.975Z,856.00
2018-05-21T03:45:47.160Z,900.00
2018-05-21T03:46:47.341Z,948.00
2018-05-21T03:47:47.522Z,996.00
2018-05-21T03:48:47.707Z,1048.00
2018-05-21T03:49:47.881Z,1100.00
2018-05-21T03:50:48.064Z,1152.00
2018-05-21T03:51:48.243Z,1208.00
2018-05-21T03:52:48.426Z,1264.00
2018-05-21T03:53:48.605Z,1320.00
2018-05-21T03:54:48.783Z,1376.00
2018-05-21T03:55:49.203Z,1440.00
2018-05-21T03:56:49.149Z,1496.00
2018-05-21T03:57:49.329Z,1560.00
2018-05-21T03:58:49.516Z,1624.00
2018-05-21T03:59:49.690Z,1688.00
2018-05-21T04:00:49.873Z,1752.00
2018-05-21T04:01:50.045Z,1816.00
2018-05-21T04:02:50.231Z,1888.00
2018-05-21T04:03:50.410Z,1956.00
2018-05-21T04:04:50.588Z,2024.00
2018-05-21T04:05:50.774Z,2096.00
2018-05-21T04:06:50.955Z,2172.00
2018-05-21T04:07:51.139Z,2244.00
2018-05-21T04:08:51.324Z,2324.00
2018-05-21T04:09:51.498Z,2396.00
2018-05-21T04:10:51.674Z,2476.00
2018-05-21T04:11:51.919Z,2552.00
2018-05-21T04:12:52.043Z,2636.00
2018-05-21T04:13:52.219Z,2724.00
2018-05-21T04:14:52.396Z,2808.00
2018-05-21T04:15:52.578Z,2896.00
2018-05-21T04:16:52.759Z,2992.00
2018-05-21T04:17:52.944Z,7688.00
2018-05-21T04:18:53.214Z,16256.00
2018-05-21T04:19:53.302Z,18752.00
2018-05-21T04:20:53.499Z,20160.00
2018-05-21T04:21:53.672Z,22784.00
2018-05-21T04:22:53.849Z,24608.00
2018-05-21T04:23:54.032Z,25248.00
2018-05-21T04:24:54.215Z,26304.00
2018-05-21T04:25:54.398Z,27968.00
2018-05-21T04:26:54.578Z,29984.00
2018-05-21T04:27:54.763Z,31840.00
2018-05-21T04:28:54.963Z,33088.00
2018-05-21T04:29:55.394Z,34944.00
2018-05-21T04:30:55.333Z,35520.00
2018-05-21T04:31:55.516Z,35040.00
2018-05-21T04:32:55.695Z,33760.00
2018-05-21T04:33:55.880Z,33440.00
2018-05-21T04:34:56.066Z,33728.00
2018-05-21T04:35:56.255Z,34816.00
2018-05-21T04:36:56.447Z,36128.00
2018-05-21T04:37:56.604Z,36960.00
2018-05-21T04:38:56.798Z,35872.00
2018-05-21T04:39:56.989Z,35264.00
2018-05-21T04:40:57.167Z,36800.00
2018-05-21T04:41:57.347Z,38848.00
2018-05-21T04:42:57.536Z,40288.00
2018-05-21T04:43:57.723Z,41568.00
2018-05-21T04:44:57.911Z,41984.00
2018-05-21T04:45:58.093Z,41280.00
2018-05-21T04:46:58.295Z,40480.00
2018-05-21T04:47:58.493Z,40704.00
2018-05-21T04:48:58.671Z,41632.00
2018-05-21T04:49:58.859Z,43168.00
2018-05-21T04:50:59.048Z,44640.00
2018-05-21T04:51:59.242Z,46016.00
2018-05-21T04:52:59.429Z,46208.00
2018-05-21T04:53:59.630Z,44640.00
2018-05-21T04:54:59.814Z,42912.00
2018-05-21T04:55:59.999Z,40800.00
2018-05-21T04:57:00.200Z,41056.00
2018-05-21T04:58:00.375Z,44032.00
2018-05-21T04:59:00.558Z,46720.00
2018-05-21T05:00:00.744Z,48288.00
2018-05-21T05:02:01.124Z,47872.00
2018-05-21T05:03:01.320Z,48192.00
2018-05-21T05:04:01.501Z,49792.00
2018-05-21T05:05:01.687Z,52512.00
2018-05-21T05:06:01.879Z,54976.00
2018-05-21T05:07:02.067Z,53856.00
2018-05-21T05:08:02.267Z,51840.00
2018-05-21T05:09:02.454Z,49472.00
2018-05-21T05:10:02.642Z,48320.00
2018-05-21T05:11:02.831Z,49888.00
2018-05-21T05:12:03.021Z,51776.00
2018-05-21T05:13:03.211Z,54592.00
2018-05-21T05:14:03.398Z,55424.00
2018-05-21T05:15:03.592Z,55456.00
2018-05-21T05:16:03.776Z,54304.00
2018-05-21T05:17:03.963Z,51744.00
2018-05-21T05:18:04.166Z,50624.00
2018-05-21T05:19:04.345Z,50176.00
2018-05-21T05:20:04.540Z,51616.00
2018-05-21T05:21:04.734Z,53472.00
2018-05-21T05:22:04.928Z,53984.00
2018-05-21T05:23:05.123Z,52320.00
2018-05-21T05:24:05.306Z,51552.00
2018-05-21T05:25:05.499Z,52992.00
2018-05-21T05:26:05.688Z,54464.00
2018-05-21T05:27:05.878Z,52672.00
2018-05-21T05:28:06.081Z,49312.00
2018-05-21T05:29:06.268Z,47392.00
2018-05-21T05:30:06.459Z,46400.00
2018-05-21T05:31:06.661Z,46816.00
2018-05-21T05:32:06.847Z,47296.00
2018-05-21T05:33:07.041Z,47616.00
2018-05-21T05:34:07.234Z,47136.00
2018-05-21T05:35:07.442Z,46560.00
2018-05-21T05:36:07.673Z,45440.00
2018-05-21T05:37:07.821Z,45824.00
2018-05-21T05:38:08.019Z,47936.00
2018-05-21T05:39:08.208Z,51072.00
2018-05-21T05:40:08.399Z,54720.00
2018-05-21T05:41:08.586Z,56256.00
2018-05-21T05:42:08.871Z,55264.00
2018-05-21T05:43:08.967Z,53504.00
2018-05-21T05:44:09.158Z,52544.00
2018-05-21T05:45:09.354Z,53568.00
2018-05-21T05:46:09.545Z,55328.00
2018-05-21T05:47:09.992Z,55616.00
2018-05-21T05:48:09.927Z,53792.00
2018-05-21T05:49:10.118Z,53056.00
2018-05-21T05:50:10.309Z,54464.00
2018-05-21T05:51:10.499Z,56992.00
2018-05-21T05:52:10.687Z,58048.00
2018-05-21T05:53:10.882Z,56480.00
2018-05-21T05:54:11.080Z,54464.00
2018-05-21T05:55:11.269Z,54336.00
2018-05-21T05:56:11.464Z,55712.00
2018-05-21T05:57:11.665Z,58336.00
2018-05-21T05:58:11.856Z,59232.00
2018-05-21T05:59:12.050Z,59008.00
2018-05-21T06:00:12.250Z,58176.00
2018-05-21T06:01:12.444Z,57632.00
2018-05-21T06:02:12.627Z,58112.00
2018-05-21T06:03:12.829Z,57472.00
2018-05-21T06:04:13.014Z,54976.00
2018-05-21T06:05:13.216Z,53344.00
2018-05-21T06:06:13.407Z,54112.00
2018-05-21T06:07:13.611Z,55744.00
2018-05-21T06:08:13.785Z,56768.00
2018-05-21T06:09:13.974Z,57152.00
2018-05-21T06:10:14.166Z,55072.00
2018-05-21T06:11:14.361Z,53184.00
2018-05-21T06:12:14.559Z,52992.00
2018-05-21T06:13:14.752Z,54720.00
2018-05-21T06:14:14.946Z,55520.00
2018-05-21T06:16:15.326Z,52992.00
2018-05-21T06:17:15.523Z,51840.00
2018-05-21T06:18:15.717Z,52768.00
2018-05-21T06:19:15.900Z,55136.00
2018-05-21T06:20:16.096Z,57120.00
2018-05-21T06:21:16.289Z,56768.00
2018-05-21T06:22:16.478Z,55264.00
2018-05-21T06:23:16.678Z,52832.00
2018-05-21T06:24:16.865Z,50752.00
2018-05-21T06:25:17.074Z,49824.00
2018-05-21T06:26:17.586Z,50656.00
2018-05-21T06:27:17.453Z,50336.00
2018-05-21T06:28:17.649Z,48960.00
2018-05-21T06:29:17.846Z,47360.00
2018-05-21T06:30:18.035Z,46752.00
2018-05-21T06:31:18.220Z,48160.00
2018-05-21T06:32:18.421Z,49184.00
2018-05-21T06:33:18.619Z,48800.00
2018-05-21T06:34:18.842Z,47136.00
2018-05-21T06:35:18.983Z,46272.00
2018-05-21T06:36:19.175Z,46112.00
2018-05-21T06:37:19.345Z,45440.00
2018-05-21T06:38:19.539Z,44832.00
2018-05-21T06:39:19.736Z,44992.00
2018-05-21T06:40:19.919Z,45696.00
2018-05-21T06:41:20.106Z,45152.00
2018-05-21T06:42:20.297Z,44416.00
2018-05-21T06:43:20.492Z,44640.00
2018-05-21T06:44:20.683Z,45536.00
2018-05-21T06:45:20.883Z,45536.00
2018-05-21T06:46:21.060Z,44288.00
2018-05-21T06:47:21.538Z,43968.00
2018-05-21T06:48:21.440Z,44480.00
2018-05-21T06:49:21.627Z,44992.00
2018-05-21T06:50:21.811Z,44288.00
2018-05-21T06:51:22.002Z,43104.00
2018-05-21T06:52:22.205Z,42400.00
2018-05-21T06:53:22.392Z,41792.00
2018-05-21T06:54:22.605Z,41408.00
2018-05-21T06:55:22.799Z,40064.00
2018-05-21T06:56:22.992Z,39936.00
2018-05-21T06:57:23.182Z,40224.00
2018-05-21T06:58:23.369Z,39840.00
2018-05-21T06:59:23.557Z,39040.00
2018-05-21T07:00:23.749Z,38752.00
2018-05-21T07:01:23.946Z,39296.00
2018-05-21T07:02:24.129Z,40320.00
2018-05-21T07:03:24.319Z,39712.00
2018-05-21T07:04:24.509Z,38464.00
2018-05-21T07:05:24.694Z,37344.00
2018-05-21T07:06:24.872Z,36832.00
2018-05-21T07:07:25.062Z,37504.00
2018-05-21T07:08:25.259Z,37472.00
2018-05-21T07:09:25.459Z,36128.00
2018-05-21T07:10:25.637Z,34848.00
2018-05-21T07:11:25.840Z,35360.00
2018-05-21T07:12:26.033Z,36928.00
2018-05-21T07:13:26.209Z,36096.00
2018-05-21T07:14:26.408Z,33984.00
2018-05-21T07:15:26.591Z,33472.00
2018-05-21T07:16:26.798Z,34208.00
2018-05-21T07:17:26.992Z,34080.00
2018-05-21T07:18:27.187Z,33632.00
2018-05-21T07:19:27.371Z,33088.00
2018-05-21T07:20:27.581Z,33408.00
2018-05-21T07:21:27.762Z,33440.00
2018-05-21T07:22:27.948Z,32672.00
2018-05-21T07:23:28.147Z,31584.00
2018-05-21T07:24:28.415Z,30272.00
2018-05-21T07:25:28.524Z,29280.00
2018-05-21T07:26:28.707Z,29216.00
2018-05-21T07:27:28.902Z,29632.00
2018-05-21T07:28:29.092Z,29312.00
2018-05-21T07:29:29.285Z,29184.00
2018-05-21T07:30:29.475Z,28992.00
2018-05-21T07:31:29.677Z,27712.00
2018-05-21T07:32:29.869Z,26784.00
2018-05-21T07:33:30.053Z,26464.00
2018-05-21T07:34:30.248Z,25664.00
2018-05-21T07:35:30.564Z,24960.00
2018-05-21T07:36:30.582Z,25376.00
2018-05-21T07:37:30.781Z,24832.00
2018-05-21T07:38:30.970Z,24000.00
2018-05-21T07:39:31.175Z,24064.00
2018-05-21T07:40:31.384Z,23904.00
2018-05-21T07:41:31.558Z,22944.00
2018-05-21T07:42:31.763Z,21664.00
2018-05-21T07:43:31.934Z,21536.00
2018-05-21T07:44:32.125Z,21760.00
2018-05-21T07:45:32.323Z,21888.00
2018-05-21T07:46:32.513Z,21888.00
2018-05-21T07:47:32.700Z,21568.00
2018-05-21T07:48:32.892Z,21952.00
2018-05-21T07:49:33.088Z,22080.00
2018-05-21T07:50:33.276Z,21376.00
2018-05-21T07:51:33.485Z,20992.00
2018-05-21T07:52:33.652Z,20064.00
2018-05-21T07:53:33.836Z,18976.00
2018-05-21T07:54:34.034Z,18912.00
2018-05-21T07:55:34.205Z,18816.00
2018-05-21T07:56:34.411Z,18176.00
2018-05-21T07:57:34.575Z,17376.00
2018-05-21T07:58:34.759Z,17344.00
2018-05-21T07:59:34.940Z,17824.00
2018-05-21T08:00:35.130Z,17888.00
2018-05-21T08:01:35.317Z,18272.00
2018-05-21T08:02:35.517Z,18048.00
2018-05-21T08:03:35.685Z,17312.00
2018-05-21T08:04:35.873Z,16736.00
2018-05-21T08:05:36.075Z,16448.00
2018-05-21T08:06:36.270Z,16224.00
2018-05-21T08:07:36.461Z,15904.00
2018-05-21T08:08:36.657Z,16192.00
2018-05-21T08:09:36.838Z,16544.00
2018-05-21T08:10:37.031Z,16096.00
2018-05-21T08:11:37.468Z,15520.00
2018-05-21T08:12:37.405Z,15008.00
2018-05-21T08:13:37.605Z,14752.00
2018-05-21T08:14:37.966Z,14244.00
2018-05-21T08:15:37.970Z,13956.00
2018-05-21T08:16:38.156Z,13780.00
2018-05-21T08:17:38.365Z,13560.00
2018-05-21T08:18:38.543Z,13376.00
2018-05-21T08:19:38.716Z,13064.00
2018-05-21T08:20:38.906Z,12696.00
2018-05-21T08:21:39.106Z,12376.00
2018-05-21T08:22:39.283Z,12224.00
2018-05-21T08:23:39.479Z,11940.00
2018-05-21T08:24:39.664Z,11620.00
2018-05-21T08:25:39.837Z,11500.00
2018-05-21T08:26:40.029Z,11324.00
2018-05-21T08:27:40.213Z,11308.00
2018-05-21T08:28:40.411Z,11132.00
2018-05-21T08:29:40.600Z,10740.00
2018-05-21T08:30:40.789Z,10456.00
2018-05-21T08:31:40.978Z,10404.00
2018-05-21T08:32:41.166Z,10344.00
2018-05-21T08:33:41.361Z,10280.00
2018-05-21T08:34:41.569Z,10264.00
2018-05-21T08:35:41.756Z,10220.00
2018-05-21T08:36:41.946Z,10144.00
2018-05-21T08:37:42.123Z,10100.00
2018-05-21T08:38:42.322Z,10076.00
2018-05-21T08:39:42.511Z,10032.00
2018-05-21T08:40:42.701Z,9960.00
2018-05-21T08:41:42.886Z,9920.00
2018-05-21T08:42:43.187Z,9904.00
2018-05-21T08:43:43.271Z,9784.00
2018-05-21T08:44:43.464Z,9696.00
2018-05-21T08:45:43.673Z,9568.00
2018-05-21T08:46:43.853Z,9436.00
2018-05-21T08:47:44.041Z,9344.00
2018-05-21T08:48:44.275Z,9300.00
2018-05-21T08:49:44.418Z,9240.00
2018-05-21T08:50:45.365Z,9208.00
2018-05-21T08:51:44.806Z,9172.00
2018-05-21T08:52:44.992Z,9148.00
2018-05-21T08:54:45.373Z,9172.00
2018-05-21T08:55:45.554Z,9156.00
2018-05-21T08:56:45.770Z,9180.00
2018-05-21T08:57:45.930Z,9260.00
2018-05-21T08:58:46.143Z,9296.00
2018-05-21T08:59:46.493Z,9296.00
2018-05-21T09:00:46.449Z,9284.00
2018-05-21T09:01:46.637Z,9304.00
2018-05-21T09:02:46.833Z,9296.00
2018-05-21T09:03:47.021Z,9256.00
2018-05-21T09:04:47.263Z,9244.00
2018-05-21T09:05:47.390Z,9228.00
2018-05-21T09:06:47.588Z,9256.00
2018-05-21T09:07:47.860Z,9244.00
2018-05-21T09:08:47.957Z,9256.00
2018-05-21T09:09:48.140Z,9204.00
2018-05-21T09:10:48.321Z,9176.00
2018-05-21T09:11:48.515Z,9260.00
2018-05-21T09:12:48.691Z,9280.00
2018-05-21T09:13:48.882Z,9372.00
2018-05-21T09:14:49.082Z,9532.00
2018-05-21T09:15:49.291Z,9648.00
2018-05-21T09:16:49.463Z,9632.00
2018-05-21T09:17:49.645Z,9452.00
2018-05-21T09:18:49.838Z,9228.00
2018-05-21T09:19:50.033Z,9376.00
2018-05-21T09:20:50.222Z,9436.00
2018-05-21T09:21:50.736Z,9232.00
2018-05-21T09:22:50.613Z,9164.00
2018-05-21T09:23:50.772Z,9224.00
2018-05-21T09:24:50.974Z,9228.00
2018-05-21T09:25:51.140Z,9096.00
2018-05-21T09:26:51.340Z,9040.00
2018-05-21T09:27:51.523Z,9240.00
2018-05-21T09:28:51.719Z,9220.00
2018-05-21T09:29:51.901Z,8968.00
2018-05-21T09:30:52.097Z,8940.00
2018-05-21T09:31:52.281Z,9032.00
2018-05-21T09:32:52.466Z,9300.00
2018-05-21T09:33:52.663Z,9328.00
2018-05-21T09:34:52.838Z,9216.00
2018-05-21T09:35:53.033Z,9008.00
2018-05-21T09:36:53.210Z,9016.00
2018-05-21T09:37:53.406Z,9132.00
2018-05-21T09:38:53.597Z,9364.00
2018-05-21T09:39:53.768Z,9456.00
2018-05-21T09:40:53.964Z,9264.00
2018-05-21T09:41:54.157Z,8868.00
2018-05-21T09:42:54.342Z,9108.00
2018-05-21T09:43:54.537Z,9264.00
2018-05-21T09:44:54.733Z,9636.00
2018-05-21T09:45:54.922Z,9932.00
2018-05-21T09:46:55.102Z,9728.00
2018-05-21T09:47:55.289Z,9280.00
2018-05-21T09:48:55.489Z,9100.00
2018-05-21T09:49:55.702Z,9152.00
2018-05-21T09:50:55.943Z,9108.00
2018-05-21T09:51:56.155Z,9184.00
2018-05-21T09:52:56.913Z,9260.00
2018-05-21T09:53:56.459Z,9172.00
2018-05-21T09:54:56.643Z,8700.00
2018-05-21T09:55:56.831Z,8232.00
2018-05-21T09:56:57.030Z,7784.00
2018-05-21T09:57:57.205Z,7648.00
2018-05-21T09:58:57.409Z,7612.00
2018-05-21T09:59:57.720Z,7520.00
2018-05-21T10:00:57.998Z,7484.00
2018-05-21T10:01:58.008Z,7436.00
2018-05-21T10:02:58.192Z,7364.00
2018-05-21T10:03:58.375Z,7336.00
2018-05-21T10:04:58.549Z,7288.00
2018-05-21T10:05:58.735Z,7188.00
2018-05-21T10:06:58.920Z,7112.00
2018-05-21T10:07:59.112Z,7036.00
2018-05-21T10:08:59.304Z,6976.00
2018-05-21T10:09:59.489Z,6848.00
2018-05-21T10:10:59.943Z,6752.00
2018-05-21T10:11:59.855Z,6708.00
2018-05-21T10:13:00.910Z,6624.00
2018-05-21T10:14:00.212Z,6588.00
2018-05-21T10:15:00.410Z,6512.00
2018-05-21T10:16:00.597Z,6432.00
2018-05-21T10:17:00.799Z,6328.00
2018-05-21T10:18:00.981Z,6248.00
2018-05-21T10:19:01.163Z,6180.00
2018-05-21T10:20:01.351Z,6108.00
2018-05-21T10:21:01.533Z,6040.00
2018-05-21T10:22:01.741Z,5988.00
2018-05-21T10:23:01.888Z,5932.00
2018-05-21T10:24:02.086Z,5868.00
2018-05-21T10:25:02.276Z,5808.00
2018-05-21T10:26:02.577Z,5756.00
2018-05-21T10:27:02.693Z,5708.00
2018-05-21T10:28:02.866Z,5624.00
2018-05-21T10:29:03.058Z,5580.00
2018-05-21T10:30:03.241Z,5536.00
2018-05-21T10:31:03.420Z,5456.00
2018-05-21T10:32:04.348Z,5420.00
2018-05-21T10:33:03.806Z,5420.00
2018-05-21T10:34:03.976Z,5332.00
2018-05-21T10:35:04.165Z,5300.00
2018-05-21T10:36:04.344Z,5244.00
2018-05-21T10:37:04.619Z,5220.00
2018-05-21T10:38:04.705Z,5200.00
2018-05-21T10:39:04.883Z,5176.00
2018-05-21T10:40:05.073Z,5148.00
2018-05-21T10:41:05.258Z,5100.00
2018-05-21T10:42:05.447Z,5092.00
2018-05-21T10:43:05.659Z,5080.00
2018-05-21T10:44:05.837Z,5092.00
2018-05-21T10:45:06.023Z,5060.00
2018-05-21T10:46:06.179Z,5036.00
2018-05-21T10:47:06.399Z,4996.00
2018-05-21T10:48:06.518Z,4992.00
2018-05-21T10:49:06.699Z,4984.00
2018-05-21T10:50:06.852Z,4980.00
2018-05-21T10:51:07.042Z,4952.00
2018-05-21T10:52:07.240Z,4904.00
2018-05-21T10:53:07.397Z,4904.00
2018-05-21T10:54:07.578Z,4892.00
2018-05-21T10:55:07.778Z,4860.00
2018-05-21T10:56:08.031Z,4828.00
2018-05-21T10:57:08.123Z,4832.00
2018-05-21T10:58:08.299Z,4808.00
2018-05-21T10:59:08.482Z,4808.00
2018-05-21T11:00:08.661Z,4800.00
2018-05-21T11:01:08.851Z,4772.00
2018-05-21T11:02:09.036Z,4776.00
2018-05-21T11:03:09.222Z,4764.00
2018-05-21T11:04:09.432Z,4772.00
2018-05-21T11:05:09.596Z,4776.00
2018-05-21T11:06:09.760Z,4768.00
2018-05-21T11:07:09.951Z,4764.00
2018-05-21T11:08:10.125Z,4760.00
2018-05-21T11:09:10.299Z,4752.00
2018-05-21T11:10:10.497Z,4736.00
2018-05-21T11:11:10.669Z,4720.00
2018-05-21T11:12:10.885Z,4708.00
2018-05-21T11:13:11.025Z,4692.00
2018-05-21T11:14:11.240Z,4712.00
2018-05-21T11:15:11.366Z,4700.00
2018-05-21T11:16:11.547Z,4676.00
2018-05-21T11:17:11.727Z,4680.00
2018-05-21T11:18:11.907Z,4680.00
2018-05-21T11:19:12.106Z,4680.00
2018-05-21T11:20:12.275Z,4696.00
2018-05-21T11:21:12.485Z,4700.00
2018-05-21T11:22:12.656Z,4696.00
2018-05-21T11:23:12.850Z,4692.00
2018-05-21T11:24:13.025Z,4696.00
2018-05-21T11:25:13.218Z,4684.00
2018-05-21T11:27:13.561Z,4648.00
2018-05-21T11:28:13.737Z,4632.00
2018-05-21T11:29:13.920Z,4632.00
2018-05-21T11:30:14.093Z,4628.00
2018-05-21T11:31:14.268Z,4624.00
2018-05-21T11:32:14.463Z,4604.00
2018-05-21T11:33:14.638Z,4612.00
2018-05-21T11:34:14.832Z,4604.00
2018-05-21T11:35:14.993Z,4604.00
2018-05-21T11:36:15.214Z,4588.00
2018-05-21T11:37:15.352Z,4604.00
2018-05-21T11:38:15.544Z,4624.00
2018-05-21T11:39:15.730Z,4616.00
2018-05-21T11:40:15.900Z,4612.00
2018-05-21T11:41:16.078Z,4596.00
2018-05-21T11:42:16.252Z,4600.00
2018-05-21T11:43:16.444Z,4604.00
2018-05-21T11:44:16.626Z,4612.00
2018-05-21T11:45:16.803Z,4616.00
2018-05-21T11:46:17.032Z,4604.00
2018-05-21T11:47:17.163Z,4588.00
2018-05-21T11:48:17.334Z,4572.00
2018-05-21T11:49:17.527Z,4596.00
2018-05-21T11:50:17.687Z,4580.00
2018-05-21T11:51:17.896Z,4572.00
2018-05-21T11:52:18.080Z,4588.00
2018-05-21T11:53:18.251Z,4588.00
2018-05-21T11:54:18.413Z,4588.00
2018-05-21T11:55:18.594Z,4580.00
2018-05-21T11:56:18.785Z,4596.00
2018-05-21T11:57:18.957Z,4600.00
2018-05-21T11:58:19.172Z,4592.00
2018-05-21T11:59:19.295Z,4604.00
2018-05-21T12:00:19.496Z,4548.00
2018-05-21T12:01:19.649Z,4556.00
2018-05-21T12:02:19.839Z,4548.00
2018-05-21T12:03:20.040Z,4560.00
2018-05-21T12:04:20.214Z,4704.00
2018-05-21T12:05:20.391Z,4552.00
2018-05-21T12:06:20.569Z,4536.00
2018-05-21T12:07:20.756Z,4528.00
2018-05-21T12:08:20.905Z,4564.00
2018-05-21T12:09:21.084Z,4552.00
2018-05-21T12:10:21.296Z,4568.00
2018-05-21T12:11:21.467Z,4552.00
2018-05-21T12:12:21.642Z,4520.00
2018-05-21T12:13:21.831Z,4496.00
2018-05-21T12:14:21.990Z,4508.00
2018-05-21T12:15:22.217Z,4500.00
2018-05-21T12:16:22.407Z,4488.00
2018-05-21T12:17:22.581Z,4520.00
2018-05-21T12:18:22.735Z,4576.00
2018-05-21T12:19:22.945Z,4576.00
2018-05-21T12:20:23.115Z,4572.00
2018-05-21T12:21:23.314Z,4568.00
2018-05-21T12:22:23.476Z,4564.00